Centereach, New York
Current Conditions -  °F | °C
As of 10:56 AM on Monday 24 Nov 2014 (Local Time) from KISP Reporting Station
Moderate Fog Moderate Fog  
Wind Chill: 61°   Ceiling: 200
Heat Index: 61°   Visibility: 0.25mi
Dew Point: 59°   Wind: 17mph
Humidity: 93%   Direction: 190°S
Pressure: 29.69"   Gusts: 31mph
Location:  40.86°N, 73.08°W
Report Text: KISP 241556Z 19015G27KT 1/4SM R06/3000VP6000FT FG OVC002 16/15 A2969 RMK AO2 PK WND 20028/1520 SFC VIS 1/2 RAE17DZB17E55 SLP052 FG SCT00 P0001 T01610150
Loading
Personal Weather Stations






























Interactive Weather Map New forecast layout! Learn more

10-Day Weather Forecast

Advertisements
Track Severe Weather on mobile